Time;durP1;ratioP1;P1;durP2;ratioP2;P2;SDS_P1;SDS_P2;PMS_P1;PMS_P2;Temp;Humidity;BMP_temperature;BMP_pressure;BME280_temperature;BME280_humidity;BME280_pressure;Samples;Min_cycle;Max_cycle;Signal;HPM_P1;HPM_P2
2023/05/03 03:56:02;;;;;;;10.93;8.02;;;;;;;12.83;100.00;100715.16;5743628;27;20421;-87
2023/05/03 03:59:06;;;;;;;10.07;7.47;;;;;;;12.76;100.00;100714.22;5365099;33;34180;-88
2023/05/03 04:02:10;;;;;;;11.38;7.68;;;;;;;12.75;100.00;100713.34;5365743;33;33759;-88
2023/05/03 04:05:13;;;;;;;10.75;7.40;;;;;;;12.75;100.00;100717.94;5392012;33;34766;-88
2023/05/03 04:08:17;;;;;;;10.65;7.95;;;;;;;12.83;100.00;100715.97;5391810;33;34017;-88
2023/05/03 04:11:20;;;;;;;11.27;7.87;;;;;;;12.85;100.00;100718.50;5390311;33;33927;-87
2023/05/03 04:14:23;;;;;;;11.55;7.70;;;;;;;12.82;100.00;100727.00;5394967;33;35326;-88
2023/05/03 04:17:28;;;;;;;12.65;7.80;;;;;;;12.86;100.00;100722.88;5374072;33;35351;-88
2023/05/03 04:20:35;;;;;;;10.35;7.57;;;;;;;12.83;100.00;100723.25;5388661;33;33817;-88
2023/05/03 04:23:39;;;;;;;11.02;7.60;;;;;;;12.83;100.00;100731.38;5386169;33;33180;-88
2023/05/03 04:26:43;;;;;;;9.82;7.40;;;;;;;12.84;100.00;100738.44;5388666;33;35292;-88
2023/05/03 04:29:47;;;;;;;10.82;8.02;;;;;;;12.85;100.00;100732.03;5379749;33;34144;-88
2023/05/03 04:32:53;;;;;;;12.77;7.90;;;;;;;12.88;100.00;100740.59;5379788;33;33779;-88
2023/05/03 04:35:57;;;;;;;9.80;7.55;;;;;;;12.90;100.00;100737.72;5379798;33;35380;-88
2023/05/03 04:39:00;;;;;;;9.55;7.40;;;;;;;12.97;100.00;100732.41;5381070;33;34623;-88
2023/05/03 04:42:06;;;;;;;12.68;7.62;;;;;;;13.04;100.00;100736.03;5379546;33;32555;-92
2023/05/03 04:45:09;;;;;;;12.60;7.72;;;;;;;13.11;100.00;100737.00;5379437;33;34009;-93
2023/05/03 04:48:12;;;;;;;9.85;7.62;;;;;;;13.15;100.00;100744.53;5367559;33;34126;-92
2023/05/03 04:51:15;;;;;;;11.30;7.47;;;;;;;13.19;100.00;100741.47;5369265;33;33796;-88
2023/05/03 04:54:19;;;;;;;10.38;7.15;;;;;;;13.24;100.00;100744.44;5379082;33;33952;-89
2023/05/03 04:57:22;;;;;;;9.45;7.12;;;;;;;13.23;100.00;100749.03;5382542;33;34742;-88
2023/05/03 05:00:25;;;;;;;11.18;7.20;;;;;;;13.20;100.00;100753.97;5381833;33;34040;-88
2023/05/03 05:03:30;;;;;;;9.95;7.18;;;;;;;13.28;100.00;100752.03;5382393;33;33530;-89
2023/05/03 05:06:34;;;;;;;8.45;6.50;;;;;;;13.32;100.00;100764.16;5369347;33;33804;-88
2023/05/03 05:09:38;;;;;;;9.18;7.22;;;;;;;13.32;100.00;100760.62;5368675;33;33677;-88
2023/05/03 05:12:42;;;;;;;9.10;7.12;;;;;;;13.31;100.00;100759.78;5379169;33;33760;-88
2023/05/03 05:15:45;;;;;;;11.95;6.95;;;;;;;13.36;100.00;100764.62;5366578;33;35148;-89
2023/05/03 05:18:48;;;;;;;10.20;7.43;;;;;;;13.42;100.00;100763.03;5379293;33;33921;-88
2023/05/03 05:21:52;;;;;;;8.23;6.45;;;;;;;13.49;100.00;100764.81;5367668;33;33826;-88
2023/05/03 05:24:56;;;;;;;8.23;6.78;;;;;;;13.59;100.00;100762.66;5367441;33;34269;-88
2023/05/03 05:27:59;;;;;;;10.40;7.07;;;;;;;13.66;100.00;100754.63;5379987;33;33586;-88
2023/05/03 05:31:03;;;;;;;9.45;7.10;;;;;;;13.73;100.00;100760.97;5367344;33;33943;-88
2023/05/03 05:34:07;;;;;;;7.43;6.40;;;;;;;13.87;100.00;100756.56;5380269;33;33507;-88
2023/05/03 05:37:11;;;;;;;8.27;6.25;;;;;;;13.86;100.00;100752.16;5381151;33;33755;-88
2023/05/03 05:40:14;;;;;;;9.40;6.35;;;;;;;14.08;100.00;100753.03;5367202;33;33770;-88
2023/05/03 05:43:17;;;;;;;8.90;7.00;;;;;;;14.29;100.00;100766.59;5380455;33;33696;-88
2023/05/03 05:46:20;;;;;;;9.20;6.32;;;;;;;14.47;100.00;100774.25;5380111;33;33873;-88
2023/05/03 05:49:24;;;;;;;9.05;6.75;;;;;;;14.76;100.00;100766.22;5382664;33;34224;-88
2023/05/03 05:52:27;;;;;;;7.25;6.03;;;;;;;14.91;100.00;100767.78;5388002;33;34356;-88
2023/05/03 05:55:30;;;;;;;8.82;6.37;;;;;;;15.13;100.00;100773.19;5367275;33;33552;-88
2023/05/03 05:58:36;;;;;;;7.18;5.68;;;;;;;15.32;100.00;100785.19;5377781;33;33568;-88
2023/05/03 06:01:43;;;;;;;7.45;5.95;;;;;;;15.48;100.00;100786.78;5378739;33;34209;-88
2023/05/03 06:04:46;;;;;;;13.15;5.62;;;;;;;15.70;100.00;100804.66;5367588;33;33750;-89
2023/05/03 06:07:49;;;;;;;9.15;5.93;;;;;;;15.56;100.00;100798.31;5363721;33;35306;-88
2023/05/03 06:10:52;;;;;;;8.40;5.57;;;;;;;15.46;100.00;100797.81;5378739;33;33517;-87
2023/05/03 06:13:56;;;;;;;7.80;5.65;;;;;;;15.43;100.00;100811.78;5380545;33;33881;-87
2023/05/03 06:17:00;;;;;;;7.25;5.72;;;;;;;15.42;100.00;100818.25;5361387;33;33963;-87
2023/05/03 06:20:04;;;;;;;7.05;5.55;;;;;;;15.44;100.00;100827.00;5374670;33;33394;-87
2023/05/03 06:23:08;;;;;;;8.45;5.70;;;;;;;15.42;100.00;100829.94;5379007;33;33827;-87
2023/05/03 06:26:11;;;;;;;7.85;5.78;;;;;;;15.45;100.00;100820.56;5377550;33;34420;-87
2023/05/03 06:29:14;;;;;;;8.07;6.15;;;;;;;15.52;100.00;100824.16;5377607;33;33890;-87
2023/05/03 06:32:18;;;;;;;6.37;5.78;;;;;;;15.62;100.00;100830.06;5377921;33;34044;-87
2023/05/03 06:35:21;;;;;;;8.02;6.20;;;;;;;15.78;100.00;100830.81;5366449;33;34690;-87
2023/05/03 06:38:25;;;;;;;8.43;5.87;;;;;;;16.04;100.00;100835.53;5377034;33;34534;-87
2023/05/03 06:41:31;;;;;;;7.65;5.68;;;;;;;16.09;100.00;100833.03;5386741;33;34605;-87
2023/05/03 06:44:34;;;;;;;6.40;5.72;;;;;;;16.25;100.00;100839.97;5379900;33;34531;-87
2023/05/03 06:47:41;;;;;;;5.70;5.15;;;;;;;16.32;100.00;100844.41;5379376;33;35304;-89
2023/05/03 06:50:45;;;;;;;7.87;5.53;;;;;;;16.53;100.00;100842.59;5394929;33;35233;-89
2023/05/03 06:53:48;;;;;;;6.97;5.28;;;;;;;16.43;100.00;100844.84;5388357;33;34302;-89
2023/05/03 06:56:51;;;;;;;6.32;5.60;;;;;;;16.50;100.00;100843.00;5368208;33;34217;-89
2023/05/03 06:59:54;;;;;;;5.93;5.30;;;;;;;16.66;100.00;100847.19;5382224;33;34284;-88
2023/05/03 07:02:56;;;;;;;5.65;5.05;;;;;;;17.08;100.00;100850.59;5378221;33;34185;-89
2023/05/03 07:06:00;;;;;;;10.18;5.70;;;;;;;17.15;100.00;100840.59;5380012;33;35605;-89
2023/05/03 07:09:03;;;;;;;5.10;4.60;;;;;;;17.51;100.00;100831.13;5364810;33;33954;-88
2023/05/03 07:12:11;;;;;;;7.10;5.03;;;;;;;17.78;100.00;100832.75;5373789;33;33907;-88
2023/05/03 07:15:13;;;;;;;7.72;4.90;;;;;;;18.11;100.00;100838.09;5352769;33;33900;-86
2023/05/03 07:18:16;;;;;;;6.10;4.78;;;;;;;18.65;100.00;100829.63;5376892;33;33518;-88
2023/05/03 07:21:19;;;;;;;6.47;4.75;;;;;;;18.91;100.00;100832.19;5365375;33;34559;-86
2023/05/03 07:24:24;;;;;;;4.65;4.12;;;;;;;19.22;99.58;100831.31;5356235;33;33880;-86
2023/05/03 07:27:27;;;;;;;6.45;4.30;;;;;;;19.53;93.64;100834.16;5374674;33;33869;-87
2023/05/03 07:30:30;;;;;;;4.72;4.32;;;;;;;19.58;96.21;100829.69;5368380;33;33593;-86
2023/05/03 07:33:34;;;;;;;4.35;3.95;;;;;;;19.97;93.64;100824.84;5383180;33;35567;-86
2023/05/03 07:36:38;;;;;;;5.43;4.28;;;;;;;20.22;93.76;100826.66;5383726;33;34542;-86
2023/05/03 07:39:41;;;;;;;5.03;4.07;;;;;;;20.23;92.61;100845.56;5385978;33;34135;-85
2023/05/03 07:42:45;;;;;;;5.22;3.95;;;;;;;19.96;90.03;100842.31;5369163;33;34014;-88
2023/05/03 07:45:48;;;;;;;4.43;4.03;;;;;;;19.30;93.77;100838.34;5378849;33;34014;-87
2023/05/03 07:48:51;;;;;;;4.87;4.00;;;;;;;19.24;94.74;100841.97;5377651;33;33835;-89
2023/05/03 07:51:54;;;;;;;5.95;3.90;;;;;;;18.77;93.81;100841.50;5361028;33;33530;-86
2023/05/03 07:54:58;;;;;;;4.93;4.28;;;;;;;18.83;96.12;100842.53;5377613;33;33696;-87
2023/05/03 07:58:01;;;;;;;4.55;3.97;;;;;;;18.84;95.97;100849.66;5366130;33;34081;-87
2023/05/03 08:01:04;;;;;;;4.37;3.80;;;;;;;19.20;96.14;100843.50;5376501;33;34323;-86
2023/05/03 08:04:07;;;;;;;6.00;4.68;;;;;;;19.07;96.64;100849.91;5387179;33;35638;-85
2023/05/03 08:07:10;;;;;;;6.25;4.25;;;;;;;19.02;94.71;100847.84;5379189;33;33708;-87
2023/05/03 08:10:14;;;;;;;4.82;4.30;;;;;;;19.16;95.61;100845.84;5378591;33;34140;-86
2023/05/03 08:13:17;;;;;;;5.55;4.35;;;;;;;19.28;95.22;100853.31;5363118;33;34517;-86
2023/05/03 08:16:20;;;;;;;6.20;4.68;;;;;;;18.83;97.00;100846.09;5375227;33;33538;-87
2023/05/03 08:19:23;;;;;;;5.53;4.57;;;;;;;18.72;99.37;100850.34;5380475;33;34295;-86
2023/05/03 08:22:26;;;;;;;6.15;4.68;;;;;;;18.87;97.90;100858.25;5385656;27;33473;-87
2023/05/03 08:25:29;;;;;;;5.28;4.45;;;;;;;18.87;98.02;100855.53;5379235;33;33572;-87
2023/05/03 08:28:34;;;;;;;4.47;4.07;;;;;;;18.80;97.24;100852.81;5420225;27;34266;-88
2023/05/03 08:31:38;;;;;;;5.93;4.53;;;;;;;19.06;95.11;100856.41;5386454;33;33816;-88
2023/05/03 08:34:43;;;;;;;6.87;4.97;;;;;;;19.18;96.90;100857.34;5381553;33;34121;-88
2023/05/03 08:37:46;;;;;;;7.30;4.90;;;;;;;18.87;99.73;100854.69;5404604;27;34589;-88
2023/05/03 08:40:53;;;;;;;6.78;4.90;;;;;;;19.03;98.97;100854.97;5381836;33;33752;-88
2023/05/03 08:43:58;;;;;;;6.25;4.65;;;;;;;19.13;99.56;100856.34;5381311;33;33896;-88
2023/05/03 08:47:03;;;;;;;7.10;4.60;;;;;;;19.21;99.31;100854.19;5380685;33;33819;-88
2023/05/03 08:50:10;;;;;;;5.60;4.80;;;;;;;19.52;95.56;100859.81;5380200;33;34582;-88
2023/05/03 08:53:14;;;;;;;10.05;4.80;;;;;;;20.09;89.47;100855.81;5385485;33;32568;-89
2023/05/03 08:56:38;;;;;;;6.07;4.50;;;;;;;20.16;86.76;100864.78;5382153;33;34127;-88
2023/05/03 09:00:00;;;;;;;6.25;4.30;;;;;;;20.61;84.85;100860.84;5383313;33;34214;-88
2023/05/03 09:03:04;;;;;;;4.85;4.03;;;;;;;20.81;86.33;100868.78;5385271;33;34372;-88
2023/05/03 09:06:24;;;;;;;7.62;4.75;;;;;;;21.32;85.34;100866.47;5383020;33;33778;-88
2023/05/03 09:09:31;;;;;;;5.18;4.55;;;;;;;21.05;82.35;100861.44;5393345;33;34285;-88
2023/05/03 09:12:36;;;;;;;5.03;4.53;;;;;;;21.00;82.35;100867.66;5392531;33;34904;-89
2023/05/03 09:15:39;;;;;;;5.82;4.60;;;;;;;;;;5398418;33;34682;-89
2023/05/03 09:18:55;;;;;;;8.05;4.68;;;;;;;20.70;83.96;100862.19;5399067;33;34117;-88
2023/05/03 09:22:06;;;;;;;7.75;4.50;;;;;;;21.01;82.94;100855.62;5397259;33;33895;-87
2023/05/03 09:25:10;;;;;;;7.93;4.40;;;;;;;21.59;79.81;100864.97;5385522;33;34167;-87
2023/05/03 09:28:19;;;;;;;4.37;3.90;;;;;;;21.56;78.24;100861.88;5385913;33;34679;-87
2023/05/03 09:31:22;;;;;;;5.45;4.18;;;;;;;21.55;77.34;100863.78;5395822;33;33949;-87
2023/05/03 09:34:25;;;;;;;5.68;3.78;;;;;;;21.67;78.07;100867.34;5381699;33;33892;-87
2023/05/03 09:37:37;;;;;;;6.55;4.30;;;;;;;21.87;76.48;100858.75;5379209;33;33887;-87
2023/05/03 09:40:47;;;;;;;4.90;4.40;;;;;;;22.19;77.46;100861.91;5380723;33;33984;-88
2023/05/03 09:43:54;;;;;;;6.85;4.47;;;;;;;22.67;73.87;100858.97;5381015;33;33892;-88
2023/05/03 09:47:06;;;;;;;9.10;4.80;;;;;;;22.49;72.65;100851.78;5379669;33;34277;-90
2023/05/03 09:50:09;;;;;;;4.90;4.47;;;;;;;22.48;72.02;100864.69;5383709;33;33855;-89
2023/05/03 09:53:17;;;;;;;5.60;4.35;;;;;;;22.49;72.24;100852.62;5397287;33;33924;-89
2023/05/03 09:56:25;;;;;;;6.05;4.12;;;;;;;22.18;75.43;100851.19;5392244;32;263092;-89
2023/05/03 09:59:28;;;;;;;5.40;3.85;;;;;;;22.03;77.06;100853.59;5397202;33;33692;-89
2023/05/03 10:02:32;;;;;;;7.75;4.12;;;;;;;21.92;77.67;100860.78;5373302;33;34683;-89
2023/05/03 10:05:44;;;;;;;4.87;3.97;;;;;;;22.14;77.02;100861.81;5387877;33;33916;-86
2023/05/03 10:08:53;;;;;;;9.05;4.40;;;;;;;22.23;77.33;100854.06;5396612;33;33495;-89
2023/05/03 10:12:00;;;;;;;5.95;3.90;;;;;;;22.31;77.62;100850.06;5393512;33;33389;-88
2023/05/03 10:15:06;;;;;;;5.00;4.50;;;;;;;21.75;78.06;100855.19;5384716;33;34815;-87
2023/05/03 10:18:14;;;;;;;4.80;4.18;;;;;;;21.64;78.69;100854.13;5385884;33;33735;-86
2023/05/03 10:21:28;;;;;;;5.03;4.50;;;;;;;21.89;75.67;100853.84;5384336;33;34459;-87
2023/05/03 10:24:36;;;;;;;6.05;3.80;;;;;;;22.04;74.60;100850.59;5386058;33;33423;-87
2023/05/03 10:27:45;;;;;;;4.50;4.10;;;;;;;22.07;75.65;100852.88;5382039;33;33923;-87
2023/05/03 10:30:53;;;;;;;5.57;3.95;;;;;;;22.06;74.90;100848.47;5391528;32;33587;-88
2023/05/03 10:33:56;;;;;;;4.43;3.80;;;;;;;22.23;74.90;100851.31;5398644;33;34573;-88
2023/05/03 10:37:08;;;;;;;4.75;3.92;;;;;;;21.85;71.21;100852.69;5395235;33;34246;-88
2023/05/03 10:40:16;;;;;;;4.20;3.80;;;;;;;21.86;73.31;100840.63;5379801;33;33767;-88
2023/05/03 10:43:28;;;;;;;5.50;3.97;;;;;;;21.99;73.68;100835.97;5381722;33;34393;-88
2023/05/03 10:46:33;;;;;;;4.62;4.15;;;;;;;21.80;74.32;100844.34;5390256;33;33977;-88
2023/05/03 10:49:36;;;;;;;5.70;4.30;;;;;;;21.11;76.15;100838.59;5400606;33;34277;-88
2023/05/03 10:52:42;;;;;;;7.25;4.75;;;;;;;21.45;76.74;100837.00;5372662;33;34011;-88
2023/05/03 10:56:06;;;;;;;7.75;4.60;;;;;;;21.23;77.29;100836.69;5408938;33;35229;-89
2023/05/03 10:59:17;;;;;;;6.70;4.70;;;;;;;21.05;76.88;100834.06;5407642;33;35162;-88
2023/05/03 11:02:28;;;;;;;8.40;4.50;;;;;;;21.03;76.50;100837.06;5393110;33;35352;-88
2023/05/03 11:05:32;;;;;;;4.35;3.95;;;;;;;20.94;77.57;100837.63;5406486;33;34656;-87
2023/05/03 11:08:38;;;;;;;5.50;4.65;;;;;;;21.06;77.38;100830.28;5403837;33;35072;-86
2023/05/03 11:11:42;;;;;;;6.65;4.60;;;;;;;21.40;76.55;100831.38;5386579;33;33909;-88
2023/05/03 11:14:45;;;;;;;4.70;4.20;;;;;;;21.38;77.30;100827.22;5396515;33;33750;-87
2023/05/03 11:17:48;;;;;;;4.70;4.12;;;;;;;21.50;75.58;100830.81;5400008;33;31992;-87
2023/05/03 11:20:52;;;;;;;4.72;3.95;;;;;;;21.69;75.05;100835.06;5382228;33;33365;-87
2023/05/03 11:23:57;;;;;;;4.80;4.18;;;;;;;21.71;75.14;100834.84;5390356;33;33938;-87
2023/05/03 11:27:00;;;;;;;4.57;4.18;;;;;;;21.64;75.17;100829.44;5390902;33;34825;-87
2023/05/03 11:30:13;;;;;;;5.80;4.50;;;;;;;21.18;76.74;100838.50;5389313;33;34902;-87
2023/05/03 11:33:17;;;;;;;4.45;4.05;;;;;;;21.21;77.18;100838.88;5392652;33;33940;-87
2023/05/03 11:36:21;;;;;;;4.90;4.30;;;;;;;21.13;76.58;100831.00;5391043;32;34409;-87
2023/05/03 11:39:24;;;;;;;5.75;4.28;;;;;;;20.88;77.97;100835.81;5389426;33;33491;-87
2023/05/03 11:42:27;;;;;;;5.70;4.00;;;;;;;20.85;77.35;100826.19;5390186;33;34765;-87
2023/05/03 11:45:44;;;;;;;4.68;3.95;;;;;;;21.17;77.96;100829.44;5389441;33;34858;-87
2023/05/03 11:48:47;;;;;;;5.55;4.30;;;;;;;21.15;78.03;100831.59;5391225;33;33750;-87
2023/05/03 11:51:51;;;;;;;4.75;3.95;;;;;;;20.90;79.24;100823.56;5389903;33;34118;-87
2023/05/03 11:54:57;;;;;;;6.87;4.30;;;;;;;20.71;78.62;100831.03;5397282;33;33351;-87
2023/05/03 11:58:00;;;;;;;5.12;4.00;;;;;;;20.37;80.17;100827.06;5379290;33;34563;-87
2023/05/03 12:01:05;;;;;;;4.65;4.12;;;;;;;20.05;82.31;100823.72;5383858;33;33480;-88
2023/05/03 12:04:11;;;;;;;7.78;4.28;;;;;;;20.12;82.01;100822.59;5379044;33;33890;-88
2023/05/03 12:07:14;;;;;;;5.20;4.28;;;;;;;20.34;83.14;100822.91;5381692;33;33984;-88
2023/05/03 12:10:29;;;;;;;;;;;;;;;20.21;82.53;100820.37;5382990;33;35386;-88
2023/05/03 12:13:36;;;;;;;5.68;3.90;;;;;;;20.39;81.29;100825.78;5399816;32;35705;-92
2023/05/03 12:16:48;;;;;;;4.65;4.25;;;;;;;20.25;81.81;100823.47;5395388;32;33715;-88
2023/05/03 12:20:13;;;;;;;5.07;3.90;;;;;;;20.33;81.82;100828.62;5398270;33;33480;-88
2023/05/03 12:23:36;;;;;;;6.07;3.90;;;;;;;20.28;81.13;100821.09;5396791;33;34146;-88
2023/05/03 12:26:39;;;;;;;4.60;4.20;;;;;;;20.23;81.69;100822.84;5397941;33;33831;-88
2023/05/03 12:29:44;;;;;;;4.80;4.22;;;;;;;20.28;82.65;100817.53;5392498;33;33169;-88
2023/05/03 12:32:49;;;;;;;4.45;3.90;;;;;;;20.56;82.98;100804.13;5375053;33;33461;-87
2023/05/03 12:35:53;;;;;;;5.43;4.05;;;;;;;20.51;81.89;100811.31;5384486;33;34142;-87
2023/05/03 12:39:01;;;;;;;5.05;4.22;;;;;;;21.03;79.67;100812.41;5379818;33;34637;-87
2023/05/03 12:42:06;;;;;;;5.65;4.07;;;;;;;20.90;79.63;100809.06;5380087;33;34356;-88
2023/05/03 12:45:12;;;;;;;5.32;3.72;;;;;;;21.15;78.49;100806.09;5371220;33;34014;-87
2023/05/03 12:48:16;;;;;;;6.95;4.30;;;;;;;21.24;76.62;100797.31;5381939;33;34158;-87
2023/05/03 12:51:19;;;;;;;5.55;4.30;;;;;;;20.92;76.78;100799.56;5403136;33;34467;-86
2023/05/03 12:54:28;;;;;;;5.68;4.28;;;;;;;20.58;79.20;100796.50;5401859;33;33883;-87
2023/05/03 12:57:36;;;;;;;5.57;4.10;;;;;;;20.47;80.02;100791.78;5401476;33;34009;-87
2023/05/03 13:00:43;;;;;;;5.65;4.15;;;;;;;20.35;80.48;100799.13;5403884;33;34679;-86
2023/05/03 13:04:06;;;;;;;4.97;3.90;;;;;;;19.96;81.79;100790.41;5401232;33;34096;-87
2023/05/03 13:07:29;;;;;;;4.95;4.45;;;;;;;19.91;83.80;100793.81;5387121;33;33773;-87
2023/05/03 13:10:39;;;;;;;4.50;4.10;;;;;;;19.77;84.56;100788.72;5396407;33;35295;-87
2023/05/03 13:13:43;;;;;;;7.90;4.35;;;;;;;19.52;85.54;100788.78;5380088;33;33910;-87
2023/05/03 13:16:48;;;;;;;8.35;4.30;;;;;;;19.32;85.81;100789.84;5394766;33;33657;-86
2023/05/03 13:19:52;;;;;;;4.55;4.03;;;;;;;19.24;87.88;100793.66;5393404;33;34428;-86
2023/05/03 13:22:54;;;;;;;4.62;4.22;;;;;;;19.21;87.70;100788.66;5395435;33;33940;-87
2023/05/03 13:25:58;;;;;;;4.80;4.07;;;;;;;19.36;92.94;100782.84;5397082;33;34508;-86
2023/05/03 13:29:00;;;;;;;5.80;4.22;;;;;;;19.44;96.39;100796.22;5383214;33;33898;-86
2023/05/03 13:32:04;;;;;;;5.35;4.18;;;;;;;19.70;97.73;100784.19;5389247;33;33676;-88
2023/05/03 13:35:08;;;;;;;4.87;3.75;;;;;;;19.92;88.59;100784.56;5402165;33;34348;-87
2023/05/03 13:38:16;;;;;;;5.85;4.10;;;;;;;20.03;84.12;100779.37;5380619;33;33512;-88
2023/05/03 13:41:19;;;;;;;4.32;3.92;;;;;;;20.17;82.75;100776.22;5387568;33;34585;-87
2023/05/03 13:44:24;;;;;;;5.22;3.80;;;;;;;20.39;81.07;100775.72;5395290;33;34851;-87
2023/05/03 13:47:26;;;;;;;4.68;4.05;;;;;;;20.64;81.53;100770.09;5389787;33;35573;-87
2023/05/03 13:50:43;;;;;;;14.13;4.12;;;;;;;20.46;81.23;100768.25;5379157;33;33573;-88
2023/05/03 13:53:46;;;;;;;6.45;4.10;;;;;;;20.46;83.16;100773.72;5378952;33;34461;-87
2023/05/03 13:56:50;;;;;;;4.18;3.78;;;;;;;20.54;82.02;100772.59;5379090;33;34641;-88
2023/05/03 13:59:53;;;;;;;5.75;4.12;;;;;;;20.26;82.09;100776.72;5380272;33;33642;-88
2023/05/03 14:02:56;;;;;;;5.37;4.20;;;;;;;20.11;82.78;100773.59;5367307;33;33342;-88
2023/05/03 14:06:03;;;;;;;5.10;3.75;;;;;;;20.23;82.03;100770.91;5380137;33;34590;-87
2023/05/03 14:09:06;;;;;;;5.72;4.07;;;;;;;20.45;83.19;100772.06;5366719;33;34453;-88
2023/05/03 14:12:09;;;;;;;7.43;4.20;;;;;;;20.80;80.86;100771.34;5378797;33;33741;-87
2023/05/03 14:15:13;;;;;;;4.55;3.80;;;;;;;20.69;81.02;100762.03;5378421;33;34960;-88
2023/05/03 14:18:16;;;;;;;6.40;4.07;;;;;;;20.99;79.71;100764.66;5378866;33;34385;-87
2023/05/03 14:21:20;;;;;;;4.55;3.70;;;;;;;21.12;79.42;100752.66;5397298;33;32530;-88
2023/05/03 14:24:24;;;;;;;6.30;3.60;;;;;;;20.82;79.75;100759.06;5383639;33;34123;-88
2023/05/03 14:27:27;;;;;;;5.20;3.65;;;;;;;20.92;79.37;100758.50;5381243;33;33681;-88
2023/05/03 14:30:32;;;;;;;3.97;3.60;;;;;;;20.94;80.44;100758.25;5379271;33;33549;-87
2023/05/03 14:33:35;;;;;;;4.05;3.65;;;;;;;20.81;78.79;100760.13;5397925;33;33986;-88
2023/05/03 14:36:42;;;;;;;3.72;3.35;;;;;;;20.89;78.41;100761.69;5397023;33;33591;-87
2023/05/03 14:39:45;;;;;;;5.07;3.70;;;;;;;20.64;81.39;100750.94;5390093;33;33730;-87
2023/05/03 14:42:48;;;;;;;3.87;3.22;;;;;;;20.33;82.06;100750.16;5379483;33;33360;-87
2023/05/03 14:45:51;;;;;;;4.37;3.97;;;;;;;20.30;82.97;100747.88;5391197;32;34002;-91
2023/05/03 14:48:54;;;;;;;5.43;4.28;;;;;;;19.66;86.45;100761.12;5411577;33;35168;-90
2023/05/03 14:51:58;;;;;;;4.30;3.90;;;;;;;19.73;85.74;100752.84;5393085;33;34776;-92
2023/05/03 14:55:02;;;;;;;7.40;4.20;;;;;;;19.62;87.07;100757.12;5379396;33;35123;-92
2023/05/03 14:58:08;;;;;;;4.32;3.55;;;;;;;19.42;88.32;100754.66;5385739;33;33855;-88
2023/05/03 15:01:18;;;;;;;7.03;4.20;;;;;;;19.38;88.25;100758.06;5378675;33;33969;-87
2023/05/03 15:04:22;;;;;;;5.05;4.30;;;;;;;19.32;88.16;100756.25;5384798;33;32223;-87
2023/05/03 15:07:25;;;;;;;4.50;4.05;;;;;;;19.24;88.62;100755.47;5382151;33;33812;-88
2023/05/03 15:10:30;;;;;;;4.68;4.18;;;;;;;19.20;89.86;100764.34;5396828;33;33750;-88
2023/05/03 15:13:33;;;;;;;8.25;4.22;;;;;;;19.26;90.76;100764.25;5397220;33;34268;-87
2023/05/03 15:16:37;;;;;;;7.43;4.32;;;;;;;19.20;90.15;100756.16;5395729;33;33876;-87
2023/05/03 15:19:40;;;;;;;5.87;4.12;;;;;;;19.22;89.19;100757.59;5396891;33;34091;-88
2023/05/03 15:22:43;;;;;;;6.62;4.00;;;;;;;19.07;89.22;100767.19;5396742;33;33905;-87
2023/05/03 15:25:46;;;;;;;4.65;4.03;;;;;;;18.80;90.76;100761.97;5383929;33;33448;-87
2023/05/03 15:28:50;;;;;;;4.47;4.07;;;;;;;18.96;90.93;100758.69;5395515;33;33860;-87
2023/05/03 15:32:02;;;;;;;4.80;3.80;;;;;;;18.88;90.09;100761.69;5397334;33;33601;-87
2023/05/03 15:35:06;;;;;;;3.70;3.40;;;;;;;19.05;89.17;100756.50;5386302;33;33598;-87
2023/05/03 15:38:09;;;;;;;5.10;4.12;;;;;;;19.19;88.92;100765.41;5384006;33;34734;-87
2023/05/03 15:41:12;;;;;;;5.87;3.90;;;;;;;19.14;88.68;100765.25;5384741;33;34640;-87
2023/05/03 15:44:15;;;;;;;4.75;3.80;;;;;;;19.04;90.30;100765.72;5401323;33;33441;-88
2023/05/03 15:47:18;;;;;;;4.60;3.47;;;;;;;18.91;90.21;100766.69;5403119;33;33426;-87
2023/05/03 15:50:22;;;;;;;4.00;3.60;;;;;;;18.92;90.50;100762.91;5401950;33;34035;-87
2023/05/03 15:53:25;;;;;;;5.22;4.00;;;;;;;18.67;91.75;100776.53;5401850;33;33699;-87
2023/05/03 15:56:29;;;;;;;5.05;3.75;;;;;;;18.65;91.79;100778.63;5401025;33;33540;-88
